Time;durP1;ratioP1;P1;durP2;ratioP2;P2;SDS_P1;SDS_P2;PMS_P1;PMS_P2;Temp;Humidity;BMP_temperature;BMP_pressure;BME280_temperature;BME280_humidity;BME280_pressure;Samples;Min_cycle;Max_cycle;Signal;HPM_P1;HPM_P2
2023/09/14 00:04:33;;;;;;;9.85;2.80;;;;;;;11.79;80.27;101086.16;10219710;28;21092;-77
2023/09/14 00:09:37;;;;;;;8.63;2.30;;;;;;;11.52;80.36;101092.66;10217734;28;20125;-77
2023/09/14 00:14:40;;;;;;;8.93;3.00;;;;;;;11.30;81.18;101089.78;10215981;28;20609;-77
2023/09/14 00:19:43;;;;;;;11.82;3.05;;;;;;;11.49;81.77;101091.03;10216963;28;20055;-77
2023/09/14 00:24:47;;;;;;;10.98;3.70;;;;;;;11.21;82.05;101099.38;10225828;28;20062;-77
2023/09/14 00:29:50;;;;;;;7.43;2.78;;;;;;;11.34;82.07;101091.28;10225225;28;20043;-77
2023/09/14 00:34:53;;;;;;;6.32;2.88;;;;;;;11.26;81.95;101090.00;10240534;28;20775;-77
2023/09/14 00:39:57;;;;;;;9.63;3.22;;;;;;;11.25;82.05;101090.13;10228714;28;20047;-76
2023/09/14 00:45:00;;;;;;;6.40;3.10;;;;;;;11.37;81.85;101091.91;10241220;28;20456;-78
2023/09/14 00:50:05;;;;;;;7.25;2.95;;;;;;;11.22;81.79;101088.53;10244551;28;21156;-76
2023/09/14 00:55:10;;;;;;;5.45;2.65;;;;;;;11.31;81.43;101086.16;10236278;28;20047;-78
2023/09/14 01:00:14;;;;;;;10.32;2.30;;;;;;;11.34;81.07;101096.69;10242330;28;20051;-78
2023/09/14 01:05:17;;;;;;;7.18;2.25;;;;;;;11.33;81.16;101100.34;10239116;28;20135;-78
2023/09/14 01:10:23;;;;;;;11.13;2.42;;;;;;;11.43;80.99;101090.59;10232588;28;20069;-76
2023/09/14 01:15:29;;;;;;;7.60;2.25;;;;;;;11.27;80.47;101086.38;10230962;28;20054;-77
2023/09/14 01:21:11;;;;;;;3.83;2.10;;;;;;;11.31;80.36;101088.84;10230789;28;20138;-78
2023/09/14 01:26:16;;;;;;;9.80;2.50;;;;;;;11.37;79.52;101093.75;10225641;28;20073;-78
2023/09/14 01:31:19;;;;;;;6.97;2.03;;;;;;;11.38;78.86;101092.78;10230266;28;20651;-77
2023/09/14 01:36:30;;;;;;;4.43;2.15;;;;;;;11.20;78.75;101095.84;10231434;28;20050;-77
2023/09/14 01:41:35;;;;;;;8.65;2.75;;;;;;;11.07;79.19;101103.03;10219838;28;20039;-76
2023/09/14 01:46:40;;;;;;;8.25;2.67;;;;;;;11.05;79.07;101100.47;10212029;28;20051;-77
2023/09/14 01:51:43;;;;;;;7.78;2.33;;;;;;;10.92;79.81;101110.38;10215172;28;20039;-78
2023/09/14 01:56:47;;;;;;;10.75;2.60;;;;;;;11.05;80.14;101115.72;10218766;28;20054;-77
2023/09/14 02:01:51;;;;;;;5.68;2.40;;;;;;;11.06;79.18;101110.25;10236393;28;20057;-78
2023/09/14 02:06:53;;;;;;;5.43;2.10;;;;;;;11.09;78.88;101105.63;10233820;28;20046;-77
2023/09/14 02:11:58;;;;;;;10.18;3.10;;;;;;;11.02;78.64;101107.88;10222978;28;20050;-78
2023/09/14 02:17:01;;;;;;;8.43;2.95;;;;;;;11.03;79.08;101105.09;10228084;28;20050;-78
2023/09/14 02:22:04;;;;;;;6.15;2.55;;;;;;;11.00;79.00;101116.06;10243416;28;20506;-78
2023/09/14 02:27:08;;;;;;;12.07;2.70;;;;;;;10.98;78.39;101101.03;10233407;28;20077;-78
2023/09/14 02:32:11;;;;;;;5.22;2.60;;;;;;;10.98;78.78;101111.78;10234163;28;20746;-78
2023/09/14 02:37:14;;;;;;;4.63;2.00;;;;;;;10.96;78.34;101117.25;10233828;28;20051;-77
2023/09/14 02:42:19;;;;;;;5.60;1.92;;;;;;;10.90;77.59;101117.69;10252203;28;20098;-78
2023/09/14 02:47:22;;;;;;;8.88;2.70;;;;;;;10.37;80.21;101125.84;10233368;28;20048;-77
2023/09/14 02:52:25;;;;;;;6.05;2.20;;;;;;;10.50;80.34;101119.59;10225516;28;20371;-77
2023/09/14 02:57:29;;;;;;;5.55;2.38;;;;;;;10.67;79.92;101113.94;10242157;28;20152;-77
2023/09/14 03:02:33;;;;;;;6.22;2.60;;;;;;;10.52;80.22;101115.84;10237805;28;20073;-77
2023/09/14 03:07:36;;;;;;;5.18;1.85;;;;;;;10.57;80.21;101118.22;10222368;28;20596;-77
2023/09/14 03:12:40;;;;;;;10.50;2.60;;;;;;;10.58;80.03;101117.25;10224412;28;20483;-76
2023/09/14 03:17:43;;;;;;;5.20;2.50;;;;;;;10.54;78.90;101119.31;10222018;28;20051;-77
2023/09/14 03:22:46;;;;;;;5.97;2.15;;;;;;;10.36;79.40;101120.56;10213410;28;20126;-77
2023/09/14 03:27:51;;;;;;;7.15;2.47;;;;;;;9.82;82.03;101120.59;10208660;28;20043;-77
2023/09/14 03:32:54;;;;;;;7.93;2.70;;;;;;;10.02;82.15;101130.06;10215533;28;20430;-77
2023/09/14 03:37:57;;;;;;;7.55;2.42;;;;;;;10.30;81.83;101135.28;10207314;28;20055;-77
2023/09/14 03:43:01;;;;;;;6.88;2.42;;;;;;;10.36;81.25;101134.00;10214903;28;20055;-77
2023/09/14 03:48:05;;;;;;;11.00;3.20;;;;;;;10.41;81.73;101134.53;10218242;28;20055;-77
2023/09/14 03:53:10;;;;;;;6.43;2.40;;;;;;;10.42;80.63;101138.94;10234330;28;20050;-77
2023/09/14 03:58:14;;;;;;;4.35;2.17;;;;;;;10.24;80.18;101143.75;10220789;28;20058;-77
2023/09/14 04:03:17;;;;;;;9.00;2.50;;;;;;;10.24;80.36;101143.75;10222008;28;20053;-77
2023/09/14 04:08:22;;;;;;;7.15;2.95;;;;;;;10.25;79.73;101145.47;10221945;28;20095;-77
2023/09/14 04:13:29;;;;;;;4.65;2.03;;;;;;;10.18;79.69;101149.53;10226147;28;20050;-77
2023/09/14 04:18:37;;;;;;;4.07;2.65;;;;;;;10.21;79.79;101145.78;10243246;28;20525;-77
2023/09/14 04:23:41;;;;;;;7.20;2.10;;;;;;;10.17;79.36;101147.81;10239723;28;20229;-77
2023/09/14 04:28:50;;;;;;;6.72;2.33;;;;;;;10.16;79.26;101155.00;10226736;28;20206;-76
2023/09/14 04:33:53;;;;;;;2.63;1.92;;;;;;;10.20;78.97;101155.66;10232422;28;21166;-77
2023/09/14 04:38:57;;;;;;;4.07;2.30;;;;;;;10.23;78.88;101162.63;10231594;28;20060;-77
2023/09/14 04:44:02;;;;;;;7.60;4.20;;;;;;;10.24;78.66;101154.50;10228591;28;20873;-77
2023/09/14 04:49:05;;;;;;;9.55;3.15;;;;;;;10.29;78.48;101167.63;10227298;28;20051;-77
2023/09/14 04:54:08;;;;;;;4.70;2.28;;;;;;;10.20;78.47;101171.75;10228418;28;20146;-76
2023/09/14 04:59:12;;;;;;;9.00;2.50;;;;;;;10.26;78.31;101166.00;10243099;28;20058;-77
2023/09/14 05:04:16;;;;;;;5.05;2.92;;;;;;;10.20;78.00;101163.69;10220860;28;20054;-77
2023/09/14 05:09:19;;;;;;;4.90;2.60;;;;;;;10.09;77.84;101161.75;10229103;28;20466;-77
2023/09/14 05:14:23;;;;;;;7.57;2.60;;;;;;;10.13;78.32;101176.69;10228144;28;20478;-77
2023/09/14 05:19:27;;;;;;;5.80;3.05;;;;;;;10.05;78.74;101159.38;10216783;28;20054;-77
2023/09/14 05:24:30;;;;;;;3.13;2.50;;;;;;;10.08;78.98;101172.59;10228042;28;20043;-77
2023/09/14 05:29:35;;;;;;;6.90;2.88;;;;;;;10.13;78.64;101165.94;10239358;28;20661;-76
2023/09/14 05:34:38;;;;;;;6.13;2.10;;;;;;;10.03;79.31;101172.03;10225792;28;21286;-77
2023/09/14 05:39:41;;;;;;;6.82;3.33;;;;;;;10.14;79.32;101180.22;10239277;28;20178;-77
2023/09/14 05:44:48;;;;;;;6.68;2.83;;;;;;;10.12;79.79;101179.47;10224806;28;20062;-77
2023/09/14 05:49:51;;;;;;;6.47;2.92;;;;;;;10.22;79.89;101193.16;10227771;28;20511;-76
2023/09/14 05:54:55;;;;;;;3.50;2.33;;;;;;;10.30;79.76;101188.97;10226238;28;20051;-77
2023/09/14 05:59:59;;;;;;;2.90;2.20;;;;;;;10.39;80.15;101184.81;10226685;28;20427;-77
2023/09/14 06:05:02;;;;;;;5.97;2.15;;;;;;;10.64;79.53;101201.94;10225960;28;20051;-77
2023/09/14 06:10:23;;;;;;;4.32;2.13;;;;;;;10.80;79.13;101208.00;10229617;28;20434;-77
2023/09/14 06:15:27;;;;;;;3.03;1.83;;;;;;;10.89;78.88;101203.78;10226589;28;20047;-77
2023/09/14 06:20:30;;;;;;;2.88;1.90;;;;;;;11.03;78.86;101206.41;10227952;28;20062;-77
2023/09/14 06:25:33;;;;;;;2.72;1.90;;;;;;;11.27;78.32;101210.09;10219941;28;20047;-77
2023/09/14 06:30:37;;;;;;;4.22;1.90;;;;;;;11.48;77.93;101209.50;10224979;28;20414;-77
2023/09/14 06:35:40;;;;;;;4.13;2.15;;;;;;;12.34;78.60;101208.59;10225213;28;20047;-77
2023/09/14 06:40:45;;;;;;;5.28;1.60;;;;;;;13.13;74.31;101215.06;10217601;28;20063;-77
2023/09/14 06:45:50;;;;;;;1.75;1.30;;;;;;;13.28;71.90;101213.88;10210920;28;20051;-77
2023/09/14 06:50:53;;;;;;;3.58;1.80;;;;;;;13.81;70.51;101215.94;10212899;28;20130;-77
2023/09/14 06:55:55;;;;;;;2.25;1.38;;;;;;;13.82;69.27;101214.97;10212761;28;20050;-77
2023/09/14 07:01:03;;;;;;;3.95;1.67;;;;;;;14.23;69.20;101215.22;10209718;28;20833;-76
2023/09/14 07:06:06;;;;;;;4.72;1.50;;;;;;;14.46;69.27;101222.31;10216862;28;20534;-77
2023/09/14 07:11:09;;;;;;;4.40;1.63;;;;;;;15.01;68.09;101219.44;10220894;28;20054;-77
2023/09/14 07:16:13;;;;;;;5.20;2.80;;;;;;;15.66;66.29;101217.34;10230219;28;20055;-77
2023/09/14 07:21:16;;;;;;;6.55;2.60;;;;;;;15.24;64.50;101220.97;10220518;28;20058;-77
2023/09/14 07:26:19;;;;;;;3.88;1.70;;;;;;;15.07;65.65;101236.97;10224925;28;21348;-77
2023/09/14 07:31:23;;;;;;;3.60;2.05;;;;;;;15.16;66.02;101233.47;10229504;28;20050;-77
2023/09/14 07:36:26;;;;;;;8.60;2.75;;;;;;;15.24;66.27;101218.25;10228700;28;20047;-77
2023/09/14 07:41:29;;;;;;;2.53;1.63;;;;;;;15.46;65.87;101243.47;10227829;28;20053;-76
2023/09/14 07:46:33;;;;;;;8.55;2.95;;;;;;;15.97;64.89;101245.25;10227926;28;20142;-77
2023/09/14 07:51:37;;;;;;;5.95;2.28;;;;;;;15.85;65.03;101241.81;10245058;28;20062;-77
2023/09/14 07:56:39;;;;;;;4.28;1.77;;;;;;;16.38;61.48;101243.34;10228682;28;20094;-77
2023/09/14 08:01:44;;;;;;;7.20;2.45;;;;;;;16.67;58.88;101242.50;10222439;28;20058;-77
2023/09/14 08:06:47;;;;;;;5.55;2.40;;;;;;;16.48;57.29;101244.22;10226388;28;20059;-76
2023/09/14 08:11:50;;;;;;;3.25;1.48;;;;;;;16.94;58.23;101249.88;10227915;28;20077;-76
2023/09/14 08:16:55;;;;;;;9.50;2.10;;;;;;;17.33;55.23;101255.25;10228642;28;20055;-77
2023/09/14 08:21:59;;;;;;;6.80;1.95;;;;;;;17.81;54.20;101254.22;10222790;28;20047;-76
2023/09/14 08:27:02;;;;;;;6.95;1.80;;;;;;;17.99;52.79;101252.44;10221925;28;20095;-77
2023/09/14 08:32:06;;;;;;;6.78;1.63;;;;;;;17.94;51.69;101257.44;10218860;28;20054;-78
2023/09/14 08:37:10;;;;;;;5.63;1.63;;;;;;;18.29;51.80;101258.53;10241484;28;20107;-77
2023/09/14 08:42:14;;;;;;;6.35;2.00;;;;;;;17.84;53.56;101271.06;10256511;28;20086;-77
2023/09/14 08:47:19;;;;;;;3.25;1.85;;;;;;;18.29;51.75;101267.56;10222893;28;20184;-77
2023/09/14 08:52:23;;;;;;;6.15;1.70;;;;;;;18.37;50.26;101266.78;10221658;28;20055;-77
2023/09/14 08:57:27;;;;;;;5.40;1.50;;;;;;;18.47;49.98;101262.13;10226033;28;20529;-77
2023/09/14 09:02:33;;;;;;;4.22;1.15;;;;;;;18.98;48.91;101265.19;10231064;28;21117;-77
2023/09/14 09:07:38;;;;;;;2.38;0.88;;;;;;;19.27;47.32;101273.03;10232482;28;21448;-78
2023/09/14 09:12:41;;;;;;;4.80;1.05;;;;;;;19.09;45.57;101264.03;10227491;28;20051;-78
2023/09/14 09:17:46;;;;;;;7.10;1.45;;;;;;;19.42;44.87;101263.25;10230618;28;20140;-77
2023/09/14 09:22:50;;;;;;;5.90;1.10;;;;;;;19.52;46.84;101260.41;10235721;28;20074;-78
2023/09/14 09:27:58;;;;;;;3.42;1.17;;;;;;;19.88;45.19;101254.81;10235731;28;20546;-77
2023/09/14 09:33:03;;;;;;;3.67;1.10;;;;;;;20.78;43.08;101241.38;10229022;28;20058;-78
2023/09/14 09:38:14;;;;;;;6.75;1.08;;;;;;;20.90;43.56;101244.59;10229392;28;20051;-77
2023/09/14 09:43:17;;;;;;;6.72;1.25;;;;;;;21.33;42.51;101240.66;10229736;28;20122;-78
2023/09/14 09:48:22;;;;;;;6.03;1.73;;;;;;;21.23;39.54;101237.28;10242408;28;20058;-77
2023/09/14 09:53:24;;;;;;;7.60;1.67;;;;;;;20.72;41.40;101248.38;10221516;28;20182;-77
2023/09/14 09:58:34;;;;;;;7.90;1.38;;;;;;;20.98;40.56;101250.94;10223952;28;20434;-77
2023/09/14 10:03:39;;;;;;;3.08;1.20;;;;;;;21.10;40.16;101253.34;10223118;28;20404;-78
2023/09/14 10:08:52;;;;;;;2.22;1.00;;;;;;;20.39;40.48;101233.00;10217990;28;20052;-77
2023/09/14 10:13:57;;;;;;;4.30;1.08;;;;;;;21.07;39.79;101234.59;10214439;28;20047;-78
2023/09/14 10:19:03;;;;;;;8.23;1.30;;;;;;;20.58;41.00;101223.66;10216114;28;20058;-78
2023/09/14 10:24:07;;;;;;;3.90;1.25;;;;;;;20.93;41.28;101222.44;10214224;28;20403;-77
2023/09/14 10:29:10;;;;;;;6.20;1.33;;;;;;;20.39;40.03;101230.28;10220093;28;20540;-77
2023/09/14 10:34:17;;;;;;;5.38;1.55;;;;;;;18.92;42.30;101233.13;10227568;28;20061;-78
2023/09/14 10:39:22;;;;;;;7.60;2.33;;;;;;;19.39;44.31;101216.41;10228616;28;20055;-77
2023/09/14 10:44:27;;;;;;;7.10;1.60;;;;;;;19.72;42.18;101220.19;10229790;28;20519;-77
2023/09/14 10:49:34;;;;;;;5.47;1.40;;;;;;;20.91;41.33;101210.84;10222307;28;20074;-78
2023/09/14 10:54:37;;;;;;;8.23;1.80;;;;;;;22.14;38.49;101216.78;10226028;28;20058;-78
2023/09/14 10:59:47;;;;;;;6.05;1.48;;;;;;;21.16;38.90;101212.53;10230872;28;20069;-77
2023/09/14 11:10:24;;;;;;;4.50;1.70;;;;;;;20.06;42.18;101202.91;10497903;27;20834;-78
2023/09/14 11:15:34;;;;;;;4.75;1.13;;;;;;;20.48;41.85;101189.16;10468130;28;20112;-77
2023/09/14 11:20:42;;;;;;;6.15;1.50;;;;;;;20.12;41.05;101197.63;10470265;28;20059;-77
2023/09/14 11:25:48;;;;;;;5.80;1.30;;;;;;;19.16;43.11;101203.34;10477868;28;20045;-77
2023/09/14 11:31:11;;;;;;;6.15;1.50;;;;;;;19.01;43.10;101199.50;10473190;28;20415;-77
2023/09/14 11:36:14;;;;;;;6.53;1.67;;;;;;;18.96;44.01;101194.53;10453835;28;20049;-77
2023/09/14 11:41:40;;;;;;;4.85;1.48;;;;;;;19.12;43.16;101199.25;10457282;28;20508;-77
2023/09/14 11:46:47;;;;;;;8.55;1.50;;;;;;;19.89;41.79;101188.38;10456327;28;20060;-77
2023/09/14 11:51:55;;;;;;;5.07;1.42;;;;;;;23.07;37.83;101185.56;10452333;28;20052;-77
2023/09/14 11:57:05;;;;;;;7.10;1.40;;;;;;;24.20;36.25;101180.72;10454212;28;20403;-77
2023/09/14 12:02:09;;;;;;;4.78;1.40;;;;;;;24.36;34.55;101174.13;10449585;28;20044;-78
2023/09/14 12:07:12;;;;;;;3.88;1.75;;;;;;;23.55;37.04;101188.78;10451405;28;20076;-77
2023/09/14 12:12:27;;;;;;;6.25;1.45;;;;;;;24.19;35.30;101179.88;10462887;28;20813;-76
2023/09/14 12:17:30;;;;;;;5.28;1.50;;;;;;;23.85;37.68;101177.81;10462211;28;20060;-77
2023/09/14 12:22:34;;;;;;;3.97;1.33;;;;;;;22.57;37.31;101188.94;10435436;28;20045;-77
2023/09/14 12:27:38;;;;;;;3.80;1.42;;;;;;;21.35;39.53;101186.69;10434711;28;20084;-76
2023/09/14 12:32:42;;;;;;;6.22;1.88;;;;;;;22.59;39.97;101186.88;10450318;28;20063;-77
2023/09/14 12:37:46;;;;;;;6.50;1.52;;;;;;;23.81;36.59;101179.25;10454957;28;20049;-77
2023/09/14 12:42:50;;;;;;;5.00;1.52;;;;;;;22.90;38.07;101184.88;10449635;28;20053;-76
2023/09/14 12:47:53;;;;;;;3.25;1.60;;;;;;;22.10;39.59;101188.06;10450776;28;20044;-77
2023/09/14 12:52:57;;;;;;;3.97;1.50;;;;;;;22.62;37.50;101173.66;10453833;28;20040;-77
2023/09/14 12:58:05;;;;;;;2.95;1.38;;;;;;;22.93;36.52;101172.69;10452221;28;21553;-77
2023/09/14 13:03:09;;;;;;;4.40;1.85;;;;;;;24.83;35.44;101154.28;10460460;28;20055;-77
2023/09/14 13:08:12;;;;;;;4.05;1.60;;;;;;;22.97;36.34;101154.84;10459822;28;20115;-77
2023/09/14 13:13:16;;;;;;;3.75;1.40;;;;;;;23.75;34.91;101147.03;10484568;28;20411;-76
2023/09/14 13:18:19;;;;;;;4.82;2.05;;;;;;;25.35;33.84;101141.94;10477803;28;21164;-77
2023/09/14 13:36:10;;;;;;;4.68;1.48;;;;;;;25.29;32.95;101120.78;10473080;28;20036;-78
2023/09/14 13:41:13;;;;;;;4.68;1.50;;;;;;;26.68;32.63;101108.38;10480197;28;20138;-78
2023/09/14 13:46:16;;;;;;;7.30;2.28;;;;;;;26.56;31.12;101110.09;10479670;28;20036;-77
2023/09/14 13:51:20;;;;;;;4.32;1.70;;;;;;;26.71;31.25;101113.44;10480336;28;20044;-78
2023/09/14 13:56:26;;;;;;;3.85;1.52;;;;;;;26.29;31.51;101096.31;10481289;28;20174;-77
2023/09/14 14:01:30;;;;;;;6.60;1.95;;;;;;;25.48;33.26;101088.03;10482085;28;20122;-77
2023/09/14 14:06:35;;;;;;;9.60;1.80;;;;;;;25.05;33.81;101085.53;10491824;28;20063;-77
2023/09/14 14:11:38;;;;;;;3.80;1.73;;;;;;;25.12;33.66;101084.53;10493373;28;20124;-77
2023/09/14 14:16:42;;;;;;;3.70;2.00;;;;;;;25.57;35.12;101084.06;10494491;28;20573;-77
2023/09/14 14:21:46;;;;;;;4.20;1.40;;;;;;;25.54;34.45;101077.06;10488461;28;20126;-77
2023/09/14 14:26:51;;;;;;;4.22;1.52;;;;;;;25.29;35.83;101074.03;10484011;28;20048;-77
2023/09/14 14:31:53;;;;;;;4.50;1.75;;;;;;;23.57;35.41;101060.56;10485195;28;20063;-77
2023/09/14 14:36:58;;;;;;;4.30;1.70;;;;;;;23.18;37.15;101067.28;10482834;28;20052;-77
2023/09/14 14:42:01;;;;;;;7.13;1.90;;;;;;;22.57;37.65;101068.47;10482487;28;20125;-77
2023/09/14 14:47:04;;;;;;;4.32;1.77;;;;;;;24.09;35.53;101064.09;10483915;28;20052;-77
2023/09/14 14:52:08;;;;;;;5.38;2.20;;;;;;;22.74;36.67;101075.50;10455011;28;20040;-77
2023/09/14 14:57:11;;;;;;;4.50;1.65;;;;;;;23.47;35.12;101056.44;10492137;28;20071;-77
2023/09/14 15:02:14;;;;;;;5.57;1.90;;;;;;;23.51;35.90;101061.34;10495182;28;20065;-76
2023/09/14 15:07:18;;;;;;;4.88;2.13;;;;;;;23.14;36.60;101052.25;10470157;28;20507;-76
2023/09/14 15:12:21;;;;;;;7.47;2.45;;;;;;;22.07;36.91;101054.38;10469001;28;20048;-76
2023/09/14 15:17:24;;;;;;;6.40;1.90;;;;;;;22.49;36.68;101051.13;10472131;28;20479;-77
2023/09/14 15:22:28;;;;;;;4.45;1.58;;;;;;;23.84;36.79;101047.19;10470162;28;20062;-77
2023/09/14 15:27:31;;;;;;;4.28;1.67;;;;;;;23.38;37.32;101052.97;10472239;28;20040;-76
2023/09/14 15:32:34;;;;;;;4.15;1.73;;;;;;;21.92;40.70;101056.22;10473612;28;20043;-76
2023/09/14 15:37:38;;;;;;;6.78;1.75;;;;;;;20.88;42.72;101050.09;10470682;28;20168;-77
2023/09/14 15:42:41;;;;;;;5.03;1.83;;;;;;;20.33;43.87;101038.94;10476958;28;20051;-77
2023/09/14 15:47:46;;;;;;;7.50;1.90;;;;;;;20.25;43.09;101043.53;10474866;28;20056;-76
2023/09/14 15:52:50;;;;;;;7.80;1.73;;;;;;;20.51;45.36;101043.34;10483424;28;20059;-77
2023/09/14 15:57:53;;;;;;;6.05;1.52;;;;;;;20.13;47.37;101046.63;10491444;28;20449;-77
2023/09/14 16:02:56;;;;;;;3.97;1.90;;;;;;;21.17;44.89;101039.41;10492500;28;20040;-76
2023/09/14 16:08:08;;;;;;;6.82;2.40;;;;;;;21.53;44.91;101038.88;10493543;28;21034;-77
2023/09/14 16:13:11;;;;;;;7.35;2.00;;;;;;;21.19;42.30;101036.47;10489899;28;20056;-77
2023/09/14 16:18:14;;;;;;;4.22;1.90;;;;;;;20.92;44.14;101035.88;10489029;28;20047;-76
2023/09/14 16:23:18;;;;;;;5.22;1.73;;;;;;;21.16;nan;101028.66;10490840;28;22207;-76
2023/09/14 16:28:21;;;;;;;5.57;1.98;;;;;;;21.14;43.64;101033.44;10492424;28;20135;-76
2023/09/14 16:33:24;;;;;;;7.55;1.73;;;;;;;21.04;44.56;101039.13;10489287;28;20250;-76
2023/09/14 16:38:28;;;;;;;8.52;2.20;;;;;;;20.98;44.47;101037.94;10489300;28;20071;-76
2023/09/14 16:43:31;;;;;;;2.85;1.48;;;;;;;20.85;43.68;101034.06;10468875;28;20048;-76
2023/09/14 16:48:36;;;;;;;5.32;2.00;;;;;;;20.70;45.56;101036.66;10485211;28;20059;-76
2023/09/14 16:53:40;;;;;;;4.80;1.75;;;;;;;20.31;46.36;101043.72;10488062;28;20049;-76
2023/09/14 16:58:43;;;;;;;4.53;1.92;;;;;;;19.93;47.18;101034.34;10490838;28;20125;-74
2023/09/14 17:03:49;;;;;;;2.88;1.55;;;;;;;19.56;48.26;101040.28;10487549;28;20055;-77
2023/09/14 17:08:54;;;;;;;6.20;1.48;;;;;;;19.06;49.05;101039.25;10482532;28;20072;-76
2023/09/14 17:13:56;;;;;;;6.55;2.10;;;;;;;18.64;50.42;101048.19;10484442;28;20136;-76
2023/09/14 17:19:00;;;;;;;7.07;1.85;;;;;;;18.29;51.26;101041.84;10483330;28;20519;-77
2023/09/14 17:24:04;;;;;;;5.75;2.03;;;;;;;17.91;52.48;101035.75;10485825;28;20449;-76
2023/09/14 17:29:08;;;;;;;9.93;2.63;;;;;;;17.57;53.61;101032.00;10479598;28;20608;-76
2023/09/14 17:34:11;;;;;;;6.00;1.90;;;;;;;17.31;54.52;101031.91;10482007;28;20063;-76
2023/09/14 17:39:16;;;;;;;4.57;1.70;;;;;;;16.97;56.02;101036.03;10480823;28;20511;-74
2023/09/14 17:44:22;;;;;;;6.18;2.28;;;;;;;16.85;56.29;101029.13;10478581;28;20182;-74
2023/09/14 17:49:26;;;;;;;6.43;2.38;;;;;;;16.73;56.79;101033.91;10483912;28;20045;-73
2023/09/14 17:54:31;;;;;;;5.65;2.20;;;;;;;16.54;56.85;101034.81;10488357;28;20181;-74
2023/09/14 17:59:34;;;;;;;5.55;2.05;;;;;;;16.32;57.51;101046.00;10484790;28;20048;-73
2023/09/14 18:04:37;;;;;;;6.63;1.92;;;;;;;16.15;57.81;101042.13;10465593;28;20051;-73
2023/09/14 18:09:42;;;;;;;7.15;2.25;;;;;;;16.01;58.19;101048.84;10480831;28;20059;-74
2023/09/14 18:14:44;;;;;;;9.93;2.17;;;;;;;15.91;58.54;101038.03;10482278;28;20048;-74
2023/09/14 18:19:47;;;;;;;4.72;2.28;;;;;;;15.79;58.91;101032.91;10487287;28;20422;-73
2023/09/14 18:24:53;;;;;;;4.90;2.13;;;;;;;15.81;58.86;101047.16;10480855;28;20135;-73
2023/09/14 18:29:57;;;;;;;3.55;1.95;;;;;;;15.71;59.08;101041.72;10482991;28;20071;-74
2023/09/14 18:35:00;;;;;;;4.47;2.00;;;;;;;15.52;59.91;101044.41;10476399;28;20503;-73
2023/09/14 18:40:07;;;;;;;4.78;2.33;;;;;;;15.41;60.74;101045.41;10483671;28;20719;-74
2023/09/14 18:45:11;;;;;;;5.07;2.22;;;;;;;15.37;61.03;101043.97;10480475;28;20045;-76
2023/09/14 18:50:14;;;;;;;6.15;2.05;;;;;;;15.20;61.88;101051.75;10472335;28;20048;-75
2023/09/14 18:55:18;;;;;;;6.15;2.00;;;;;;;15.04;62.26;101054.97;10471028;28;20469;-76
2023/09/14 19:00:21;;;;;;;4.10;2.00;;;;;;;15.07;62.50;101061.97;10479351;28;20052;-74
2023/09/14 19:05:24;;;;;;;4.47;2.10;;;;;;;14.90;62.72;101066.16;10478827;28;20545;-74
2023/09/14 19:10:28;;;;;;;7.32;2.65;;;;;;;14.93;62.40;101065.03;10483584;28;20193;-74
2023/09/14 19:15:31;;;;;;;6.05;2.47;;;;;;;14.94;62.53;101061.34;10478108;28;20782;-74
2023/09/14 19:20:35;;;;;;;6.70;2.03;;;;;;;14.89;62.75;101067.19;10478468;28;20094;-75
2023/09/14 19:25:40;;;;;;;3.78;2.05;;;;;;;14.77;62.55;101065.53;10479491;28;20059;-75
2023/09/14 19:30:44;;;;;;;4.65;2.28;;;;;;;14.66;62.78;101063.78;10491273;28;20079;-74
2023/09/14 19:35:51;;;;;;;5.95;2.38;;;;;;;14.57;63.42;101067.28;10496534;28;20193;-74
2023/09/14 19:40:56;;;;;;;9.15;2.55;;;;;;;14.47;63.89;101072.63;10487086;28;20044;-74
2023/09/14 19:45:59;;;;;;;3.85;1.88;;;;;;;14.29;64.78;101074.19;10502646;28;20056;-77
2023/09/14 19:51:03;;;;;;;6.50;2.20;;;;;;;14.26;65.40;101082.56;10497416;28;20052;-75
2023/09/14 19:56:08;;;;;;;4.35;2.40;;;;;;;14.26;65.40;101077.16;10497493;28;20070;-74
2023/09/14 20:01:11;;;;;;;5.95;2.00;;;;;;;14.20;65.72;101086.63;10488698;28;20109;-74
2023/09/14 20:06:15;;;;;;;3.38;2.13;;;;;;;14.21;66.40;101090.22;10486627;28;20047;-74
2023/09/14 20:11:20;;;;;;;4.28;2.58;;;;;;;14.13;66.16;101085.47;10483335;28;20056;-73
2023/09/14 20:16:23;;;;;;;6.15;2.70;;;;;;;14.13;66.55;101074.66;10486337;28;20048;-74
2023/09/14 20:21:26;;;;;;;4.95;2.10;;;;;;;14.10;66.87;101070.38;10484739;28;20076;-75
2023/09/14 20:26:31;;;;;;;8.48;2.65;;;;;;;14.04;66.57;101062.81;10475124;28;20044;-74
2023/09/14 20:31:34;;;;;;;7.25;2.53;;;;;;;13.87;66.80;101069.59;10472780;28;20060;-74
2023/09/14 20:36:37;;;;;;;10.02;3.13;;;;;;;13.68;67.67;101067.59;10475658;28;20090;-74
2023/09/14 20:41:42;;;;;;;5.43;3.00;;;;;;;13.61;68.40;101066.41;10481160;28;20207;-74
2023/09/14 20:46:45;;;;;;;9.05;2.50;;;;;;;13.73;68.61;101060.97;10478460;28;20465;-74
2023/09/14 20:51:48;;;;;;;6.78;3.58;;;;;;;13.79;68.18;101065.84;10484237;28;20502;-74
2023/09/14 20:56:52;;;;;;;7.30;3.00;;;;;;;13.76;67.85;101061.56;10484308;28;20558;-74
2023/09/14 21:01:55;;;;;;;8.93;3.20;;;;;;;13.63;68.47;101066.25;10490637;28;20096;-75
2023/09/14 21:06:58;;;;;;;8.85;2.67;;;;;;;13.56;68.28;101059.66;10475060;28;20145;-74
2023/09/14 21:12:04;;;;;;;5.57;2.78;;;;;;;13.54;68.89;101051.69;10487499;28;20052;-74
2023/09/14 21:17:07;;;;;;;5.60;2.30;;;;;;;13.39;68.47;101047.56;10467013;28;20055;-74
2023/09/14 21:22:10;;;;;;;6.13;2.63;;;;;;;13.39;68.58;101043.03;10465281;28;20075;-74
2023/09/14 21:27:15;;;;;;;5.47;2.90;;;;;;;13.37;68.79;101047.69;10477975;28;20157;-74
2023/09/14 21:32:18;;;;;;;6.38;2.50;;;;;;;13.38;68.89;101044.00;10478699;28;20419;-75
2023/09/14 21:37:21;;;;;;;5.10;2.72;;;;;;;13.33;68.85;101040.81;10491661;28;20103;-74
2023/09/14 21:42:26;;;;;;;6.85;2.80;;;;;;;13.26;68.84;101037.75;10480713;28;20052;-75
2023/09/14 21:47:30;;;;;;;8.57;3.00;;;;;;;13.17;69.24;101041.22;10470673;28;20051;-74
2023/09/14 21:52:33;;;;;;;6.95;3.08;;;;;;;13.06;69.42;101043.94;10467250;28;20666;-74
2023/09/14 21:57:37;;;;;;;7.55;3.15;;;;;;;13.01;69.94;101035.34;10472586;28;20048;-74
2023/09/14 22:02:40;;;;;;;7.72;2.72;;;;;;;12.95;70.05;101033.16;10464830;28;20055;-74
2023/09/14 22:07:43;;;;;;;5.28;2.35;;;;;;;12.66;70.71;101032.78;10453836;28;20063;-73
2023/09/14 22:12:48;;;;;;;6.72;2.95;;;;;;;12.63;71.21;101027.63;10473846;28;20048;-75
2023/09/14 22:17:52;;;;;;;6.47;2.83;;;;;;;12.51;71.27;101029.47;10471742;28;20177;-75
2023/09/14 22:22:56;;;;;;;8.98;2.47;;;;;;;12.51;71.14;101034.88;10473879;28;20047;-74
2023/09/14 22:28:00;;;;;;;9.57;2.97;;;;;;;12.52;71.41;101023.09;10479481;28;20175;-74
2023/09/14 22:33:04;;;;;;;7.10;2.80;;;;;;;12.54;71.50;101034.63;10476564;28;20044;-74
2023/09/14 22:38:07;;;;;;;10.68;3.38;;;;;;;12.57;71.33;101021.75;10476340;28;20044;-74
2023/09/14 22:43:12;;;;;;;4.93;2.67;;;;;;;12.62;70.97;101025.94;10474812;28;20048;-75
2023/09/14 22:48:14;;;;;;;5.50;3.20;;;;;;;12.56;70.79;101028.13;10479615;28;20099;-74
2023/09/14 22:53:17;;;;;;;5.65;2.72;;;;;;;12.43;70.83;101024.69;10476192;28;20155;-74
2023/09/14 22:58:21;;;;;;;4.60;2.83;;;;;;;12.22;71.56;101023.66;10490952;28;20059;-74
2023/09/14 23:03:24;;;;;;;7.75;3.20;;;;;;;12.13;72.15;101017.13;10480896;28;20052;-74
2023/09/14 23:08:27;;;;;;;3.75;2.50;;;;;;;12.04;72.18;101015.13;10477813;28;20041;-74
2023/09/14 23:13:31;;;;;;;5.15;2.72;;;;;;;11.95;72.90;101012.19;10476445;28;20059;-74
2023/09/14 23:18:37;;;;;;;4.25;2.40;;;;;;;11.97;72.94;101011.22;10482655;28;20044;-74
2023/09/14 23:23:40;;;;;;;7.10;2.72;;;;;;;12.01;72.59;101015.38;10475164;28;20101;-74
2023/09/14 23:28:45;;;;;;;3.97;2.72;;;;;;;11.95;72.99;101012.19;10473144;28;20062;-74
2023/09/14 23:33:48;;;;;;;6.45;2.95;;;;;;;11.97;72.33;101004.00;10466442;28;20072;-75
2023/09/14 23:38:51;;;;;;;5.38;2.80;;;;;;;11.87;72.24;100989.53;10487239;28;20044;-75